sensor_id;sensor_type;location;lat;lon;timestamp;P1;durP1;ratioP1;P2;durP2;ratioP2
66559;SDS011;53413;49.878;8.142;2024-01-10T00:01:12;12.83;;;4.37;;
66559;SDS011;53413;49.878;8.142;2024-01-10T00:03:37;13.80;;;3.47;;
66559;SDS011;53413;49.878;8.142;2024-01-10T00:06:02;14.53;;;4.33;;
66559;SDS011;53413;49.878;8.142;2024-01-10T00:08:28;14.68;;;3.83;;
66559;SDS011;53413;49.878;8.142;2024-01-10T00:10:53;13.37;;;3.67;;
66559;SDS011;53413;49.878;8.142;2024-01-10T00:13:19;11.70;;;3.83;;
66559;SDS011;53413;49.878;8.142;2024-01-10T00:15:46;12.00;;;3.45;;
66559;SDS011;53413;49.878;8.142;2024-01-10T00:18:11;14.50;;;4.27;;
66559;SDS011;53413;49.878;8.142;2024-01-10T00:20:36;14.93;;;4.43;;
66559;SDS011;53413;49.878;8.142;2024-01-10T00:23:02;16.10;;;4.17;;
66559;SDS011;53413;49.878;8.142;2024-01-10T00:25:27;12.93;;;3.85;;
66559;SDS011;53413;49.878;8.142;2024-01-10T00:27:53;11.93;;;3.77;;
66559;SDS011;53413;49.878;8.142;2024-01-10T00:30:18;12.27;;;4.03;;
66559;SDS011;53413;49.878;8.142;2024-01-10T00:32:43;14.40;;;4.60;;
66559;SDS011;53413;49.878;8.142;2024-01-10T00:35:09;14.23;;;4.40;;
66559;SDS011;53413;49.878;8.142;2024-01-10T00:37:35;12.45;;;3.67;;
66559;SDS011;53413;49.878;8.142;2024-01-10T00:40:00;13.67;;;3.63;;
66559;SDS011;53413;49.878;8.142;2024-01-10T00:42:26;13.10;;;3.80;;
66559;SDS011;53413;49.878;8.142;2024-01-10T00:44:52;16.13;;;4.33;;
66559;SDS011;53413;49.878;8.142;2024-01-10T00:47:17;13.80;;;4.30;;
66559;SDS011;53413;49.878;8.142;2024-01-10T00:49:42;14.93;;;4.30;;
66559;SDS011;53413;49.878;8.142;2024-01-10T00:52:08;14.50;;;4.40;;
66559;SDS011;53413;49.878;8.142;2024-01-10T00:54:33;14.63;;;5.00;;
66559;SDS011;53413;49.878;8.142;2024-01-10T00:56:58;15.97;;;4.40;;
66559;SDS011;53413;49.878;8.142;2024-01-10T00:59:24;13.45;;;4.45;;
66559;SDS011;53413;49.878;8.142;2024-01-10T01:01:49;15.52;;;4.28;;
66559;SDS011;53413;49.878;8.142;2024-01-10T01:04:14;15.43;;;4.00;;
66559;SDS011;53413;49.878;8.142;2024-01-10T01:06:40;15.70;;;4.30;;
66559;SDS011;53413;49.878;8.142;2024-01-10T01:09:05;16.37;;;4.47;;
66559;SDS011;53413;49.878;8.142;2024-01-10T01:11:30;15.57;;;4.10;;
66559;SDS011;53413;49.878;8.142;2024-01-10T01:13:56;14.83;;;5.53;;
66559;SDS011;53413;49.878;8.142;2024-01-10T01:16:21;13.37;;;4.00;;
66559;SDS011;53413;49.878;8.142;2024-01-10T01:18:46;16.50;;;4.67;;
66559;SDS011;53413;49.878;8.142;2024-01-10T01:21:12;15.25;;;4.75;;
66559;SDS011;53413;49.878;8.142;2024-01-10T01:23:37;14.47;;;4.17;;
66559;SDS011;53413;49.878;8.142;2024-01-10T01:26:03;16.03;;;4.70;;
66559;SDS011;53413;49.878;8.142;2024-01-10T01:28:29;15.90;;;5.35;;
66559;SDS011;53413;49.878;8.142;2024-01-10T01:30:54;17.70;;;4.50;;
66559;SDS011;53413;49.878;8.142;2024-01-10T01:33:20;14.02;;;4.47;;
66559;SDS011;53413;49.878;8.142;2024-01-10T01:35:45;13.63;;;4.17;;
66559;SDS011;53413;49.878;8.142;2024-01-10T01:38:11;21.80;;;4.53;;
66559;SDS011;53413;49.878;8.142;2024-01-10T01:40:36;17.83;;;4.53;;
66559;SDS011;53413;49.878;8.142;2024-01-10T01:43:02;15.20;;;4.20;;
66559;SDS011;53413;49.878;8.142;2024-01-10T01:45:43;18.08;;;5.22;;
66559;SDS011;53413;49.878;8.142;2024-01-10T01:48:09;16.53;;;4.90;;
66559;SDS011;53413;49.878;8.142;2024-01-10T01:50:34;15.25;;;4.32;;
66559;SDS011;53413;49.878;8.142;2024-01-10T01:52:59;17.47;;;4.67;;
66559;SDS011;53413;49.878;8.142;2024-01-10T01:55:25;15.27;;;4.63;;
66559;SDS011;53413;49.878;8.142;2024-01-10T01:57:50;19.30;;;4.87;;
66559;SDS011;53413;49.878;8.142;2024-01-10T02:00:16;18.63;;;4.73;;
66559;SDS011;53413;49.878;8.142;2024-01-10T02:02:42;15.23;;;4.60;;
66559;SDS011;53413;49.878;8.142;2024-01-10T02:05:08;13.60;;;4.63;;
66559;SDS011;53413;49.878;8.142;2024-01-10T02:07:34;16.37;;;4.77;;
66559;SDS011;53413;49.878;8.142;2024-01-10T02:09:59;13.65;;;4.35;;
66559;SDS011;53413;49.878;8.142;2024-01-10T02:12:25;15.13;;;4.80;;
66559;SDS011;53413;49.878;8.142;2024-01-10T02:14:50;18.97;;;5.87;;
66559;SDS011;53413;49.878;8.142;2024-01-10T02:17:15;16.53;;;5.00;;
66559;SDS011;53413;49.878;8.142;2024-01-10T02:19:41;16.47;;;4.47;;
66559;SDS011;53413;49.878;8.142;2024-01-10T02:22:06;19.80;;;5.73;;
66559;SDS011;53413;49.878;8.142;2024-01-10T02:24:31;23.63;;;6.13;;
66559;SDS011;53413;49.878;8.142;2024-01-10T02:26:57;15.57;;;4.63;;
66559;SDS011;53413;49.878;8.142;2024-01-10T02:29:22;18.35;;;4.78;;
66559;SDS011;53413;49.878;8.142;2024-01-10T02:31:49;16.65;;;4.63;;
66559;SDS011;53413;49.878;8.142;2024-01-10T02:34:14;19.83;;;5.00;;
66559;SDS011;53413;49.878;8.142;2024-01-10T02:36:39;17.20;;;4.93;;
66559;SDS011;53413;49.878;8.142;2024-01-10T02:39:05;19.37;;;5.10;;
66559;SDS011;53413;49.878;8.142;2024-01-10T02:41:30;15.63;;;4.43;;
66559;SDS011;53413;49.878;8.142;2024-01-10T02:43:56;15.40;;;4.80;;
66559;SDS011;53413;49.878;8.142;2024-01-10T02:46:23;17.98;;;5.45;;
66559;SDS011;53413;49.878;8.142;2024-01-10T02:48:52;17.75;;;5.22;;
66559;SDS011;53413;49.878;8.142;2024-01-10T02:51:18;18.75;;;5.60;;
66559;SDS011;53413;49.878;8.142;2024-01-10T02:53:43;17.73;;;5.13;;
66559;SDS011;53413;49.878;8.142;2024-01-10T02:56:09;17.90;;;5.20;;
66559;SDS011;53413;49.878;8.142;2024-01-10T02:58:34;16.30;;;5.53;;
66559;SDS011;53413;49.878;8.142;2024-01-10T03:00:59;21.93;;;5.70;;
66559;SDS011;53413;49.878;8.142;2024-01-10T03:03:26;19.27;;;5.78;;
66559;SDS011;53413;49.878;8.142;2024-01-10T03:05:51;20.40;;;5.50;;
66559;SDS011;53413;49.878;8.142;2024-01-10T03:08:17;17.80;;;5.33;;
66559;SDS011;53413;49.878;8.142;2024-01-10T03:10:42;16.00;;;4.90;;
66559;SDS011;53413;49.878;8.142;2024-01-10T03:13:07;16.60;;;5.77;;
66559;SDS011;53413;49.878;8.142;2024-01-10T03:15:32;23.65;;;6.38;;
66559;SDS011;53413;49.878;8.142;2024-01-10T03:17:58;25.20;;;6.00;;
66559;SDS011;53413;49.878;8.142;2024-01-10T03:20:23;23.93;;;5.87;;
66559;SDS011;53413;49.878;8.142;2024-01-10T03:22:48;21.70;;;5.90;;
66559;SDS011;53413;49.878;8.142;2024-01-10T03:25:14;18.97;;;5.73;;
66559;SDS011;53413;49.878;8.142;2024-01-10T03:27:39;21.73;;;5.97;;
66559;SDS011;53413;49.878;8.142;2024-01-10T03:30:04;24.77;;;6.20;;
66559;SDS011;53413;49.878;8.142;2024-01-10T03:32:30;19.92;;;5.57;;
66559;SDS011;53413;49.878;8.142;2024-01-10T03:34:56;20.00;;;6.03;;
66559;SDS011;53413;49.878;8.142;2024-01-10T03:37:22;20.60;;;6.13;;
66559;SDS011;53413;49.878;8.142;2024-01-10T03:39:47;19.27;;;5.63;;
66559;SDS011;53413;49.878;8.142;2024-01-10T03:42:13;16.73;;;5.27;;
66559;SDS011;53413;49.878;8.142;2024-01-10T03:44:40;19.33;;;5.55;;
66559;SDS011;53413;49.878;8.142;2024-01-10T03:47:06;20.67;;;6.07;;
66559;SDS011;53413;49.878;8.142;2024-01-10T03:49:31;18.87;;;5.97;;
66559;SDS011;53413;49.878;8.142;2024-01-10T03:51:56;16.67;;;5.97;;
66559;SDS011;53413;49.878;8.142;2024-01-10T03:54:22;22.27;;;5.37;;
66559;SDS011;53413;49.878;8.142;2024-01-10T03:56:47;20.05;;;5.85;;
66559;SDS011;53413;49.878;8.142;2024-01-10T03:59:12;21.20;;;6.07;;
66559;SDS011;53413;49.878;8.142;2024-01-10T04:01:38;16.67;;;5.97;;
66559;SDS011;53413;49.878;8.142;2024-01-10T04:04:04;21.63;;;6.53;;
66559;SDS011;53413;49.878;8.142;2024-01-10T04:06:29;19.20;;;5.68;;
66559;SDS011;53413;49.878;8.142;2024-01-10T04:08:55;21.83;;;6.30;;
66559;SDS011;53413;49.878;8.142;2024-01-10T04:11:20;20.70;;;5.23;;
66559;SDS011;53413;49.878;8.142;2024-01-10T04:13:46;22.87;;;5.57;;
66559;SDS011;53413;49.878;8.142;2024-01-10T04:16:11;21.27;;;5.72;;
66559;SDS011;53413;49.878;8.142;2024-01-10T04:18:36;22.20;;;6.53;;
66559;SDS011;53413;49.878;8.142;2024-01-10T04:21:02;22.87;;;6.70;;
66559;SDS011;53413;49.878;8.142;2024-01-10T04:23:27;21.70;;;6.00;;
66559;SDS011;53413;49.878;8.142;2024-01-10T04:25:53;21.50;;;5.90;;
66559;SDS011;53413;49.878;8.142;2024-01-10T04:28:19;22.10;;;6.22;;
66559;SDS011;53413;49.878;8.142;2024-01-10T04:30:44;17.57;;;6.33;;
66559;SDS011;53413;49.878;8.142;2024-01-10T04:33:09;21.33;;;6.20;;
66559;SDS011;53413;49.878;8.142;2024-01-10T04:35:35;22.35;;;6.72;;
66559;SDS011;53413;49.878;8.142;2024-01-10T04:38:03;19.40;;;6.00;;
66559;SDS011;53413;49.878;8.142;2024-01-10T04:40:28;21.73;;;5.90;;
66559;SDS011;53413;49.878;8.142;2024-01-10T04:42:54;16.77;;;6.00;;
66559;SDS011;53413;49.878;8.142;2024-01-10T04:45:20;18.57;;;6.13;;
66559;SDS011;53413;49.878;8.142;2024-01-10T04:47:45;23.97;;;7.03;;
66559;SDS011;53413;49.878;8.142;2024-01-10T04:50:10;24.88;;;6.97;;
66559;SDS011;53413;49.878;8.142;2024-01-10T04:52:36;21.43;;;6.37;;
66559;SDS011;53413;49.878;8.142;2024-01-10T04:55:01;21.77;;;7.00;;
66559;SDS011;53413;49.878;8.142;2024-01-10T04:57:28;23.15;;;6.45;;
66559;SDS011;53413;49.878;8.142;2024-01-10T04:59:53;25.63;;;6.93;;
66559;SDS011;53413;49.878;8.142;2024-01-10T05:02:18;20.63;;;6.40;;
66559;SDS011;53413;49.878;8.142;2024-01-10T05:04:44;23.13;;;6.50;;
66559;SDS011;53413;49.878;8.142;2024-01-10T05:07:10;21.83;;;6.40;;
66559;SDS011;53413;49.878;8.142;2024-01-10T05:09:36;20.03;;;6.10;;
66559;SDS011;53413;49.878;8.142;2024-01-10T05:12:02;22.13;;;5.68;;
66559;SDS011;53413;49.878;8.142;2024-01-10T05:14:27;26.03;;;6.47;;
66559;SDS011;53413;49.878;8.142;2024-01-10T05:16:53;22.60;;;6.45;;
66559;SDS011;53413;49.878;8.142;2024-01-10T05:19:18;19.92;;;6.63;;
66559;SDS011;53413;49.878;8.142;2024-01-10T05:21:44;24.33;;;6.90;;
66559;SDS011;53413;49.878;8.142;2024-01-10T05:24:09;21.57;;;6.13;;
66559;SDS011;53413;49.878;8.142;2024-01-10T05:26:35;25.50;;;7.45;;
66559;SDS011;53413;49.878;8.142;2024-01-10T05:29:00;23.25;;;6.45;;
66559;SDS011;53413;49.878;8.142;2024-01-10T05:31:26;18.33;;;5.73;;
66559;SDS011;53413;49.878;8.142;2024-01-10T05:33:51;27.57;;;7.10;;
66559;SDS011;53413;49.878;8.142;2024-01-10T05:36:18;20.60;;;6.10;;
66559;SDS011;53413;49.878;8.142;2024-01-10T05:38:47;23.92;;;6.32;;
66559;SDS011;53413;49.878;8.142;2024-01-10T05:41:12;23.03;;;7.00;;
66559;SDS011;53413;49.878;8.142;2024-01-10T05:43:39;19.63;;;5.85;;
66559;SDS011;53413;49.878;8.142;2024-01-10T05:46:04;19.47;;;5.97;;
66559;SDS011;53413;49.878;8.142;2024-01-10T05:48:30;18.83;;;5.87;;
66559;SDS011;53413;49.878;8.142;2024-01-10T05:50:55;21.40;;;6.78;;
66559;SDS011;53413;49.878;8.142;2024-01-10T05:53:22;21.33;;;6.70;;
66559;SDS011;53413;49.878;8.142;2024-01-10T05:55:48;20.58;;;6.43;;
66559;SDS011;53413;49.878;8.142;2024-01-10T05:58:14;19.93;;;6.27;;
66559;SDS011;53413;49.878;8.142;2024-01-10T06:00:39;20.00;;;6.40;;
66559;SDS011;53413;49.878;8.142;2024-01-10T06:03:04;25.33;;;6.30;;
66559;SDS011;53413;49.878;8.142;2024-01-10T06:05:30;25.40;;;6.47;;
66559;SDS011;53413;49.878;8.142;2024-01-10T06:07:57;22.55;;;7.28;;
66559;SDS011;53413;49.878;8.142;2024-01-10T06:10:22;20.25;;;5.90;;
66559;SDS011;53413;49.878;8.142;2024-01-10T06:12:47;21.95;;;6.47;;
66559;SDS011;53413;49.878;8.142;2024-01-10T06:15:13;24.00;;;6.80;;
66559;SDS011;53413;49.878;8.142;2024-01-10T06:17:39;25.95;;;6.35;;
66559;SDS011;53413;49.878;8.142;2024-01-10T06:20:04;19.60;;;6.00;;
66559;SDS011;53413;49.878;8.142;2024-01-10T06:22:31;19.90;;;6.00;;
66559;SDS011;53413;49.878;8.142;2024-01-10T06:24:57;22.17;;;6.03;;
66559;SDS011;53413;49.878;8.142;2024-01-10T06:27:22;21.23;;;6.47;;
66559;SDS011;53413;49.878;8.142;2024-01-10T06:29:47;23.03;;;7.00;;
66559;SDS011;53413;49.878;8.142;2024-01-10T06:32:13;17.53;;;6.20;;
66559;SDS011;53413;49.878;8.142;2024-01-10T06:34:39;20.00;;;6.88;;
66559;SDS011;53413;49.878;8.142;2024-01-10T06:37:05;18.17;;;5.97;;
66559;SDS011;53413;49.878;8.142;2024-01-10T06:39:32;18.85;;;5.90;;
66559;SDS011;53413;49.878;8.142;2024-01-10T06:41:57;21.37;;;5.73;;
66559;SDS011;53413;49.878;8.142;2024-01-10T06:44:23;22.70;;;6.30;;
66559;SDS011;53413;49.878;8.142;2024-01-10T06:46:48;23.33;;;6.13;;
66559;SDS011;53413;49.878;8.142;2024-01-10T06:49:14;18.17;;;5.63;;
66559;SDS011;53413;49.878;8.142;2024-01-10T06:51:39;21.27;;;6.63;;
66559;SDS011;53413;49.878;8.142;2024-01-10T06:54:05;19.75;;;7.30;;
66559;SDS011;53413;49.878;8.142;2024-01-10T06:56:31;21.80;;;6.38;;
66559;SDS011;53413;49.878;8.142;2024-01-10T06:58:57;27.48;;;6.72;;
66559;SDS011;53413;49.878;8.142;2024-01-10T07:01:23;23.10;;;6.63;;
66559;SDS011;53413;49.878;8.142;2024-01-10T07:03:49;20.83;;;5.80;;
66559;SDS011;53413;49.878;8.142;2024-01-10T07:06:15;19.08;;;5.45;;
66559;SDS011;53413;49.878;8.142;2024-01-10T07:08:41;22.23;;;6.00;;
66559;SDS011;53413;49.878;8.142;2024-01-10T07:11:10;19.25;;;6.38;;
66559;SDS011;53413;49.878;8.142;2024-01-10T07:13:36;24.37;;;6.87;;
66559;SDS011;53413;49.878;8.142;2024-01-10T07:16:01;24.23;;;6.93;;
66559;SDS011;53413;49.878;8.142;2024-01-10T07:18:30;25.07;;;6.40;;
66559;SDS011;53413;49.878;8.142;2024-01-10T07:20:55;18.90;;;6.38;;
66559;SDS011;53413;49.878;8.142;2024-01-10T07:23:21;20.33;;;6.23;;
66559;SDS011;53413;49.878;8.142;2024-01-10T07:25:48;18.48;;;5.78;;
66559;SDS011;53413;49.878;8.142;2024-01-10T07:28:14;21.30;;;6.35;;
66559;SDS011;53413;49.878;8.142;2024-01-10T07:30:40;20.53;;;6.07;;
66559;SDS011;53413;49.878;8.142;2024-01-10T07:33:05;21.70;;;6.87;;
66559;SDS011;53413;49.878;8.142;2024-01-10T07:35:32;23.35;;;6.40;;
66559;SDS011;53413;49.878;8.142;2024-01-10T07:37:58;24.30;;;6.80;;
66559;SDS011;53413;49.878;8.142;2024-01-10T07:40:23;24.83;;;6.13;;
66559;SDS011;53413;49.878;8.142;2024-01-10T07:42:48;24.23;;;6.47;;
66559;SDS011;53413;49.878;8.142;2024-01-10T07:45:14;21.47;;;6.73;;
66559;SDS011;53413;49.878;8.142;2024-01-10T07:47:39;20.60;;;5.90;;
66559;SDS011;53413;49.878;8.142;2024-01-10T07:50:08;18.90;;;6.43;;
66559;SDS011;53413;49.878;8.142;2024-01-10T07:52:35;23.65;;;6.88;;
66559;SDS011;53413;49.878;8.142;2024-01-10T07:55:01;22.23;;;6.32;;
66559;SDS011;53413;49.878;8.142;2024-01-10T07:57:30;24.42;;;6.82;;
66559;SDS011;53413;49.878;8.142;2024-01-10T07:59:55;20.70;;;6.70;;
66559;SDS011;53413;49.878;8.142;2024-01-10T08:02:21;21.03;;;6.57;;
66559;SDS011;53413;49.878;8.142;2024-01-10T08:04:46;26.10;;;7.10;;
66559;SDS011;53413;49.878;8.142;2024-01-10T08:07:11;25.80;;;6.82;;
66559;SDS011;53413;49.878;8.142;2024-01-10T08:09:37;22.47;;;6.60;;
66559;SDS011;53413;49.878;8.142;2024-01-10T08:12:03;29.10;;;7.53;;
66559;SDS011;53413;49.878;8.142;2024-01-10T08:14:28;26.33;;;7.47;;
66559;SDS011;53413;49.878;8.142;2024-01-10T08:16:54;25.00;;;6.93;;
66559;SDS011;53413;49.878;8.142;2024-01-10T08:19:22;21.38;;;7.15;;
66559;SDS011;53413;49.878;8.142;2024-01-10T08:21:48;23.53;;;6.47;;
66559;SDS011;53413;49.878;8.142;2024-01-10T08:24:15;22.65;;;6.68;;
66559;SDS011;53413;49.878;8.142;2024-01-10T08:26:40;26.37;;;7.80;;
66559;SDS011;53413;49.878;8.142;2024-01-10T08:29:06;22.40;;;7.70;;
66559;SDS011;53413;49.878;8.142;2024-01-10T08:31:31;20.58;;;7.00;;
66559;SDS011;53413;49.878;8.142;2024-01-10T08:33:57;23.90;;;7.47;;
66559;SDS011;53413;49.878;8.142;2024-01-10T08:36:22;21.70;;;6.67;;
66559;SDS011;53413;49.878;8.142;2024-01-10T08:38:49;28.88;;;8.23;;
66559;SDS011;53413;49.878;8.142;2024-01-10T08:41:15;25.27;;;7.88;;
66559;SDS011;53413;49.878;8.142;2024-01-10T08:43:40;25.17;;;7.27;;
66559;SDS011;53413;49.878;8.142;2024-01-10T08:46:06;28.20;;;7.32;;
66559;SDS011;53413;49.878;8.142;2024-01-10T08:48:32;18.10;;;6.00;;
66559;SDS011;53413;49.878;8.142;2024-01-10T08:50:58;28.97;;;7.17;;
66559;SDS011;53413;49.878;8.142;2024-01-10T08:53:23;22.00;;;6.90;;
66559;SDS011;53413;49.878;8.142;2024-01-10T08:55:49;27.17;;;7.53;;
66559;SDS011;53413;49.878;8.142;2024-01-10T08:58:15;25.10;;;7.82;;
66559;SDS011;53413;49.878;8.142;2024-01-10T09:00:40;19.90;;;6.90;;
66559;SDS011;53413;49.878;8.142;2024-01-10T09:03:05;23.50;;;6.93;;
66559;SDS011;53413;49.878;8.142;2024-01-10T09:05:32;26.60;;;7.68;;
66559;SDS011;53413;49.878;8.142;2024-01-10T09:07:57;25.77;;;7.53;;
66559;SDS011;53413;49.878;8.142;2024-01-10T09:10:23;24.13;;;7.67;;
66559;SDS011;53413;49.878;8.142;2024-01-10T09:12:48;23.70;;;6.60;;
66559;SDS011;53413;49.878;8.142;2024-01-10T09:15:14;19.27;;;6.33;;
66559;SDS011;53413;49.878;8.142;2024-01-10T09:17:42;25.80;;;7.63;;
66559;SDS011;53413;49.878;8.142;2024-01-10T09:20:09;23.70;;;6.93;;
66559;SDS011;53413;49.878;8.142;2024-01-10T09:22:35;19.83;;;6.68;;
66559;SDS011;53413;49.878;8.142;2024-01-10T09:25:02;26.40;;;7.30;;
66559;SDS011;53413;49.878;8.142;2024-01-10T09:27:30;25.38;;;7.25;;
66559;SDS011;53413;49.878;8.142;2024-01-10T09:30:02;28.33;;;7.80;;
66559;SDS011;53413;49.878;8.142;2024-01-10T09:32:28;24.60;;;7.20;;
66559;SDS011;53413;49.878;8.142;2024-01-10T09:34:54;26.00;;;7.55;;
66559;SDS011;53413;49.878;8.142;2024-01-10T09:37:20;26.38;;;7.13;;
66559;SDS011;53413;49.878;8.142;2024-01-10T09:39:46;27.87;;;7.87;;
66559;SDS011;53413;49.878;8.142;2024-01-10T09:42:11;23.70;;;7.43;;
66559;SDS011;53413;49.878;8.142;2024-01-10T09:44:36;27.20;;;7.50;;
66559;SDS011;53413;49.878;8.142;2024-01-10T09:47:02;24.42;;;6.95;;
66559;SDS011;53413;49.878;8.142;2024-01-10T09:49:27;22.97;;;7.03;;
66559;SDS011;53413;49.878;8.142;2024-01-10T09:51:58;21.10;;;7.13;;
66559;SDS011;53413;49.878;8.142;2024-01-10T09:54:26;26.90;;;7.57;;
66559;SDS011;53413;49.878;8.142;2024-01-10T09:56:55;22.58;;;6.57;;
66559;SDS011;53413;49.878;8.142;2024-01-10T09:59:20;24.60;;;7.15;;
66559;SDS011;53413;49.878;8.142;2024-01-10T10:01:46;23.30;;;6.53;;
66559;SDS011;53413;49.878;8.142;2024-01-10T10:04:12;22.73;;;6.60;;
66559;SDS011;53413;49.878;8.142;2024-01-10T10:06:38;21.95;;;6.28;;
66559;SDS011;53413;49.878;8.142;2024-01-10T10:09:03;19.97;;;6.60;;
66559;SDS011;53413;49.878;8.142;2024-01-10T10:11:29;20.90;;;6.82;;
66559;SDS011;53413;49.878;8.142;2024-01-10T10:13:55;16.67;;;5.57;;
66559;SDS011;53413;49.878;8.142;2024-01-10T10:16:24;25.55;;;7.68;;
66559;SDS011;53413;49.878;8.142;2024-01-10T10:18:51;24.20;;;7.53;;
66559;SDS011;53413;49.878;8.142;2024-01-10T10:21:18;21.60;;;6.95;;
66559;SDS011;53413;49.878;8.142;2024-01-10T10:23:56;24.85;;;7.22;;
66559;SDS011;53413;49.878;8.142;2024-01-10T10:26:23;15.27;;;5.93;;
66559;SDS011;53413;49.878;8.142;2024-01-10T10:28:49;23.67;;;6.97;;
66559;SDS011;53413;49.878;8.142;2024-01-10T10:31:18;23.37;;;6.70;;
66559;SDS011;53413;49.878;8.142;2024-01-10T10:33:45;26.48;;;7.38;;
66559;SDS011;53413;49.878;8.142;2024-01-10T10:36:13;20.08;;;6.75;;
66559;SDS011;53413;49.878;8.142;2024-01-10T10:38:39;25.63;;;7.18;;
66559;SDS011;53413;49.878;8.142;2024-01-10T10:41:05;21.50;;;6.90;;
66559;SDS011;53413;49.878;8.142;2024-01-10T10:43:37;20.75;;;6.78;;
66559;SDS011;53413;49.878;8.142;2024-01-10T10:46:04;21.27;;;6.05;;
66559;SDS011;53413;49.878;8.142;2024-01-10T10:48:34;21.30;;;6.97;;
66559;SDS011;53413;49.878;8.142;2024-01-10T10:53:26;21.27;;;6.90;;
66559;SDS011;53413;49.878;8.142;2024-01-10T10:55:53;19.58;;;6.07;;
66559;SDS011;53413;49.878;8.142;2024-01-10T10:58:20;21.92;;;6.82;;
66559;SDS011;53413;49.878;8.142;2024-01-10T11:00:46;19.70;;;6.45;;
66559;SDS011;53413;49.878;8.142;2024-01-10T11:03:12;18.73;;;6.80;;
66559;SDS011;53413;49.878;8.142;2024-01-10T11:05:40;23.73;;;7.57;;
66559;SDS011;53413;49.878;8.142;2024-01-10T11:08:06;20.20;;;7.05;;
66559;SDS011;53413;49.878;8.142;2024-01-10T11:10:36;24.73;;;6.82;;
66559;SDS011;53413;49.878;8.142;2024-01-10T11:16:11;20.55;;;6.53;;
66559;SDS011;53413;49.878;8.142;2024-01-10T11:23:51;23.05;;;8.02;;
66559;SDS011;53413;49.878;8.142;2024-01-10T11:26:23;21.30;;;6.78;;
66559;SDS011;53413;49.878;8.142;2024-01-10T11:28:48;18.13;;;5.70;;
66559;SDS011;53413;49.878;8.142;2024-01-10T11:31:14;20.52;;;6.78;;
66559;SDS011;53413;49.878;8.142;2024-01-10T11:33:40;21.47;;;6.93;;
66559;SDS011;53413;49.878;8.142;2024-01-10T11:38:42;19.90;;;6.43;;
66559;SDS011;53413;49.878;8.142;2024-01-10T11:41:11;23.45;;;7.00;;
66559;SDS011;53413;49.878;8.142;2024-01-10T11:43:38;18.95;;;6.25;;
66559;SDS011;53413;49.878;8.142;2024-01-10T11:46:05;19.57;;;6.63;;
66559;SDS011;53413;49.878;8.142;2024-01-10T11:48:31;21.20;;;6.55;;
66559;SDS011;53413;49.878;8.142;2024-01-10T11:50:57;22.80;;;7.07;;
66559;SDS011;53413;49.878;8.142;2024-01-10T11:53:39;19.77;;;6.38;;
66559;SDS011;53413;49.878;8.142;2024-01-10T11:56:12;20.92;;;6.00;;
66559;SDS011;53413;49.878;8.142;2024-01-10T12:01:31;16.65;;;5.55;;
66559;SDS011;53413;49.878;8.142;2024-01-10T12:03:57;18.85;;;5.88;;
66559;SDS011;53413;49.878;8.142;2024-01-10T12:06:23;17.25;;;5.60;;
66559;SDS011;53413;49.878;8.142;2024-01-10T12:08:50;22.73;;;6.23;;
66559;SDS011;53413;49.878;8.142;2024-01-10T12:11:16;18.88;;;6.07;;
66559;SDS011;53413;49.878;8.142;2024-01-10T12:13:41;19.70;;;6.30;;
66559;SDS011;53413;49.878;8.142;2024-01-10T12:16:07;15.02;;;5.80;;
66559;SDS011;53413;49.878;8.142;2024-01-10T12:18:32;20.10;;;6.33;;
66559;SDS011;53413;49.878;8.142;2024-01-10T12:20:58;19.02;;;5.85;;
66559;SDS011;53413;49.878;8.142;2024-01-10T12:23:24;22.07;;;6.00;;
66559;SDS011;53413;49.878;8.142;2024-01-10T12:25:55;20.13;;;6.55;;
66559;SDS011;53413;49.878;8.142;2024-01-10T12:28:21;20.87;;;6.27;;
66559;SDS011;53413;49.878;8.142;2024-01-10T12:30:47;20.10;;;6.00;;
66559;SDS011;53413;49.878;8.142;2024-01-10T12:33:12;18.83;;;6.30;;
66559;SDS011;53413;49.878;8.142;2024-01-10T12:35:38;22.77;;;6.38;;
66559;SDS011;53413;49.878;8.142;2024-01-10T12:38:06;19.97;;;6.03;;
66559;SDS011;53413;49.878;8.142;2024-01-10T12:40:31;17.75;;;5.55;;
66559;SDS011;53413;49.878;8.142;2024-01-10T12:43:03;17.03;;;5.13;;
66559;SDS011;53413;49.878;8.142;2024-01-10T12:45:30;17.75;;;5.70;;
66559;SDS011;53413;49.878;8.142;2024-01-10T12:47:56;18.37;;;5.67;;
66559;SDS011;53413;49.878;8.142;2024-01-10T12:50:22;24.25;;;5.60;;
66559;SDS011;53413;49.878;8.142;2024-01-10T12:52:49;20.13;;;5.82;;
66559;SDS011;53413;49.878;8.142;2024-01-10T12:55:15;17.90;;;5.00;;
66559;SDS011;53413;49.878;8.142;2024-01-10T12:57:42;19.20;;;5.80;;
66559;SDS011;53413;49.878;8.142;2024-01-10T13:00:08;22.00;;;6.10;;
66559;SDS011;53413;49.878;8.142;2024-01-10T13:02:35;17.88;;;5.82;;
66559;SDS011;53413;49.878;8.142;2024-01-10T13:05:04;16.52;;;5.38;;
66559;SDS011;53413;49.878;8.142;2024-01-10T13:07:30;18.70;;;5.90;;
66559;SDS011;53413;49.878;8.142;2024-01-10T13:09:59;18.57;;;5.90;;
66559;SDS011;53413;49.878;8.142;2024-01-10T13:12:24;16.60;;;5.82;;
66559;SDS011;53413;49.878;8.142;2024-01-10T13:14:50;18.33;;;5.33;;
66559;SDS011;53413;49.878;8.142;2024-01-10T13:17:15;15.77;;;5.20;;
66559;SDS011;53413;49.878;8.142;2024-01-10T13:19:41;18.27;;;5.67;;
66559;SDS011;53413;49.878;8.142;2024-01-10T13:22:08;19.50;;;6.32;;
66559;SDS011;53413;49.878;8.142;2024-01-10T13:24:34;19.67;;;5.97;;
66559;SDS011;53413;49.878;8.142;2024-01-10T13:26:59;18.10;;;6.40;;
66559;SDS011;53413;49.878;8.142;2024-01-10T13:29:25;18.00;;;5.50;;
66559;SDS011;53413;49.878;8.142;2024-01-10T13:31:51;17.00;;;5.50;;
66559;SDS011;53413;49.878;8.142;2024-01-10T13:34:16;18.83;;;5.83;;
66559;SDS011;53413;49.878;8.142;2024-01-10T13:36:41;17.67;;;5.37;;
66559;SDS011;53413;49.878;8.142;2024-01-10T13:39:07;19.83;;;5.70;;
66559;SDS011;53413;49.878;8.142;2024-01-10T13:41:32;17.67;;;5.13;;
66559;SDS011;53413;49.878;8.142;2024-01-10T13:43:58;18.52;;;5.82;;
66559;SDS011;53413;49.878;8.142;2024-01-10T13:46:24;17.33;;;5.67;;
66559;SDS011;53413;49.878;8.142;2024-01-10T13:48:49;17.50;;;5.40;;
66559;SDS011;53413;49.878;8.142;2024-01-10T13:51:14;20.50;;;5.90;;
66559;SDS011;53413;49.878;8.142;2024-01-10T13:53:40;14.37;;;4.67;;
66559;SDS011;53413;49.878;8.142;2024-01-10T13:56:05;16.00;;;4.63;;
66559;SDS011;53413;49.878;8.142;2024-01-10T13:58:31;14.13;;;4.88;;
66559;SDS011;53413;49.878;8.142;2024-01-10T14:00:56;15.07;;;5.20;;
66559;SDS011;53413;49.878;8.142;2024-01-10T14:03:22;19.38;;;5.78;;
66559;SDS011;53413;49.878;8.142;2024-01-10T14:05:47;19.30;;;5.70;;
66559;SDS011;53413;49.878;8.142;2024-01-10T14:08:13;18.13;;;5.37;;
66559;SDS011;53413;49.878;8.142;2024-01-10T14:10:38;17.73;;;6.10;;
66559;SDS011;53413;49.878;8.142;2024-01-10T14:13:04;17.23;;;5.85;;
66559;SDS011;53413;49.878;8.142;2024-01-10T14:15:29;17.87;;;5.63;;
66559;SDS011;53413;49.878;8.142;2024-01-10T14:17:54;19.07;;;5.90;;
66559;SDS011;53413;49.878;8.142;2024-01-10T14:20:21;21.33;;;6.40;;
66559;SDS011;53413;49.878;8.142;2024-01-10T14:22:47;16.67;;;5.70;;
66559;SDS011;53413;49.878;8.142;2024-01-10T14:25:12;16.73;;;5.53;;
66559;SDS011;53413;49.878;8.142;2024-01-10T14:27:38;19.42;;;5.45;;
66559;SDS011;53413;49.878;8.142;2024-01-10T14:30:04;19.87;;;6.00;;
66559;SDS011;53413;49.878;8.142;2024-01-10T14:32:33;19.20;;;5.88;;
66559;SDS011;53413;49.878;8.142;2024-01-10T14:34:58;17.20;;;5.87;;
66559;SDS011;53413;49.878;8.142;2024-01-10T14:37:24;17.17;;;5.82;;
66559;SDS011;53413;49.878;8.142;2024-01-10T14:39:49;21.07;;;6.30;;
66559;SDS011;53413;49.878;8.142;2024-01-10T14:42:16;24.05;;;6.68;;